sensor_id;sensor_type;location;lat;lon;timestamp;P1;durP1;ratioP1;P2;durP2;ratioP2
59442;SDS011;45247;47.466;19.004;2022-12-18T00:00:05;51.75;;;20.58;;
59442;SDS011;45247;47.466;19.004;2022-12-18T00:02:34;52.88;;;20.08;;
59442;SDS011;45247;47.466;19.004;2022-12-18T00:05:02;43.95;;;17.75;;
59442;SDS011;45247;47.466;19.004;2022-12-18T00:07:32;56.70;;;21.58;;
59442;SDS011;45247;47.466;19.004;2022-12-18T00:10:00;51.17;;;17.73;;
59442;SDS011;45247;47.466;19.004;2022-12-18T00:12:28;45.10;;;18.33;;
59442;SDS011;45247;47.466;19.004;2022-12-18T00:14:56;49.97;;;19.55;;
59442;SDS011;45247;47.466;19.004;2022-12-18T00:17:25;41.95;;;18.42;;
59442;SDS011;45247;47.466;19.004;2022-12-18T00:19:53;47.15;;;19.40;;
59442;SDS011;45247;47.466;19.004;2022-12-18T00:22:21;49.40;;;19.80;;
59442;SDS011;45247;47.466;19.004;2022-12-18T00:24:50;45.58;;;17.90;;
59442;SDS011;45247;47.466;19.004;2022-12-18T00:27:18;45.95;;;18.30;;
59442;SDS011;45247;47.466;19.004;2022-12-18T00:29:47;39.78;;;16.55;;
59442;SDS011;45247;47.466;19.004;2022-12-18T00:32:16;41.20;;;18.45;;
59442;SDS011;45247;47.466;19.004;2022-12-18T00:34:44;46.60;;;18.88;;
59442;SDS011;45247;47.466;19.004;2022-12-18T00:37:12;39.42;;;16.40;;
59442;SDS011;45247;47.466;19.004;2022-12-18T00:42:17;38.78;;;15.50;;
59442;SDS011;45247;47.466;19.004;2022-12-18T00:45:02;45.17;;;15.88;;
59442;SDS011;45247;47.466;19.004;2022-12-18T00:47:38;39.10;;;15.50;;
59442;SDS011;45247;47.466;19.004;2022-12-18T00:50:06;44.33;;;18.00;;
59442;SDS011;45247;47.466;19.004;2022-12-18T00:52:35;54.08;;;19.38;;
59442;SDS011;45247;47.466;19.004;2022-12-18T00:55:04;38.55;;;16.88;;
59442;SDS011;45247;47.466;19.004;2022-12-18T00:57:34;44.58;;;18.40;;
59442;SDS011;45247;47.466;19.004;2022-12-18T01:00:02;45.75;;;18.92;;
59442;SDS011;45247;47.466;19.004;2022-12-18T01:02:31;44.40;;;17.02;;
59442;SDS011;45247;47.466;19.004;2022-12-18T01:04:59;49.90;;;18.48;;
59442;SDS011;45247;47.466;19.004;2022-12-18T01:07:27;48.72;;;19.88;;
59442;SDS011;45247;47.466;19.004;2022-12-18T01:09:55;49.53;;;19.65;;
59442;SDS011;45247;47.466;19.004;2022-12-18T01:12:24;43.95;;;18.65;;
59442;SDS011;45247;47.466;19.004;2022-12-18T01:14:53;48.80;;;18.73;;
59442;SDS011;45247;47.466;19.004;2022-12-18T01:17:22;52.30;;;18.00;;
59442;SDS011;45247;47.466;19.004;2022-12-18T01:19:50;46.50;;;19.88;;
59442;SDS011;45247;47.466;19.004;2022-12-18T01:22:18;49.30;;;19.48;;
59442;SDS011;45247;47.466;19.004;2022-12-18T01:24:46;47.00;;;18.98;;
59442;SDS011;45247;47.466;19.004;2022-12-18T01:27:14;44.53;;;17.63;;
59442;SDS011;45247;47.466;19.004;2022-12-18T01:29:43;48.45;;;20.67;;
59442;SDS011;45247;47.466;19.004;2022-12-18T01:32:12;48.88;;;18.35;;
59442;SDS011;45247;47.466;19.004;2022-12-18T01:34:40;50.60;;;16.70;;
59442;SDS011;45247;47.466;19.004;2022-12-18T01:37:08;47.17;;;19.70;;
59442;SDS011;45247;47.466;19.004;2022-12-18T01:39:37;47.28;;;18.83;;
59442;SDS011;45247;47.466;19.004;2022-12-18T01:42:08;45.60;;;19.13;;
59442;SDS011;45247;47.466;19.004;2022-12-18T01:47:32;53.08;;;21.75;;
59442;SDS011;45247;47.466;19.004;2022-12-18T01:50:05;57.15;;;23.27;;
59442;SDS011;45247;47.466;19.004;2022-12-18T01:55:05;49.28;;;19.20;;
59442;SDS011;45247;47.466;19.004;2022-12-18T01:57:34;40.75;;;16.40;;
59442;SDS011;45247;47.466;19.004;2022-12-18T02:00:06;45.92;;;18.40;;
59442;SDS011;45247;47.466;19.004;2022-12-18T02:02:37;40.83;;;17.88;;
59442;SDS011;45247;47.466;19.004;2022-12-18T02:05:07;46.95;;;17.75;;
59442;SDS011;45247;47.466;19.004;2022-12-18T02:07:38;47.10;;;17.65;;
59442;SDS011;45247;47.466;19.004;2022-12-18T02:10:15;51.22;;;18.17;;
59442;SDS011;45247;47.466;19.004;2022-12-18T02:12:48;39.17;;;16.00;;
59442;SDS011;45247;47.466;19.004;2022-12-18T02:15:23;38.40;;;15.43;;
59442;SDS011;45247;47.466;19.004;2022-12-18T02:17:58;39.35;;;16.90;;
59442;SDS011;45247;47.466;19.004;2022-12-18T02:20:32;39.42;;;15.65;;
59442;SDS011;45247;47.466;19.004;2022-12-18T02:23:10;50.95;;;18.50;;
59442;SDS011;45247;47.466;19.004;2022-12-18T02:25:54;38.58;;;15.38;;
59442;SDS011;45247;47.466;19.004;2022-12-18T02:28:33;56.53;;;19.60;;
59442;SDS011;45247;47.466;19.004;2022-12-18T02:31:06;46.95;;;18.95;;
59442;SDS011;45247;47.466;19.004;2022-12-18T02:33:39;51.75;;;19.33;;
59442;SDS011;45247;47.466;19.004;2022-12-18T02:36:10;55.03;;;19.05;;
59442;SDS011;45247;47.466;19.004;2022-12-18T02:38:42;52.58;;;19.52;;
59442;SDS011;45247;47.466;19.004;2022-12-18T02:41:13;39.90;;;16.88;;
59442;SDS011;45247;47.466;19.004;2022-12-18T02:43:46;40.58;;;15.98;;
59442;SDS011;45247;47.466;19.004;2022-12-18T02:46:24;41.63;;;15.57;;
59442;SDS011;45247;47.466;19.004;2022-12-18T02:48:58;40.50;;;15.82;;
59442;SDS011;45247;47.466;19.004;2022-12-18T02:51:33;42.35;;;16.70;;
59442;SDS011;45247;47.466;19.004;2022-12-18T02:54:09;41.00;;;17.45;;
59442;SDS011;45247;47.466;19.004;2022-12-18T02:56:45;45.42;;;17.33;;
59442;SDS011;45247;47.466;19.004;2022-12-18T02:59:19;45.95;;;16.67;;
59442;SDS011;45247;47.466;19.004;2022-12-18T03:01:54;48.05;;;18.48;;
59442;SDS011;45247;47.466;19.004;2022-12-18T03:04:26;48.92;;;18.40;;
59442;SDS011;45247;47.466;19.004;2022-12-18T03:07:02;43.28;;;17.88;;
59442;SDS011;45247;47.466;19.004;2022-12-18T03:09:36;48.22;;;17.75;;
59442;SDS011;45247;47.466;19.004;2022-12-18T03:12:10;45.58;;;19.27;;
59442;SDS011;45247;47.466;19.004;2022-12-18T03:14:51;46.10;;;17.48;;
59442;SDS011;45247;47.466;19.004;2022-12-18T03:17:25;49.20;;;19.63;;
59442;SDS011;45247;47.466;19.004;2022-12-18T03:19:56;53.33;;;20.38;;
59442;SDS011;45247;47.466;19.004;2022-12-18T03:22:27;49.00;;;19.80;;
59442;SDS011;45247;47.466;19.004;2022-12-18T03:24:58;53.58;;;19.58;;
59442;SDS011;45247;47.466;19.004;2022-12-18T03:27:31;52.17;;;19.42;;
59442;SDS011;45247;47.466;19.004;2022-12-18T03:30:05;42.85;;;16.65;;
59442;SDS011;45247;47.466;19.004;2022-12-18T03:32:38;44.13;;;18.75;;
59442;SDS011;45247;47.466;19.004;2022-12-18T03:35:10;55.08;;;20.88;;
59442;SDS011;45247;47.466;19.004;2022-12-18T03:37:41;51.72;;;21.13;;
59442;SDS011;45247;47.466;19.004;2022-12-18T03:40:09;61.90;;;21.67;;
59442;SDS011;45247;47.466;19.004;2022-12-18T03:42:42;52.72;;;18.58;;
59442;SDS011;45247;47.466;19.004;2022-12-18T03:45:19;53.08;;;18.90;;
59442;SDS011;45247;47.466;19.004;2022-12-18T03:47:54;52.60;;;19.30;;
59442;SDS011;45247;47.466;19.004;2022-12-18T03:50:30;55.10;;;20.08;;
59442;SDS011;45247;47.466;19.004;2022-12-18T03:53:07;57.75;;;19.95;;
59442;SDS011;45247;47.466;19.004;2022-12-18T03:55:45;49.80;;;18.20;;
59442;SDS011;45247;47.466;19.004;2022-12-18T03:58:17;39.25;;;16.38;;
59442;SDS011;45247;47.466;19.004;2022-12-18T04:00:48;50.42;;;18.88;;
59442;SDS011;45247;47.466;19.004;2022-12-18T04:03:19;44.88;;;17.35;;
59442;SDS011;45247;47.466;19.004;2022-12-18T04:05:52;50.67;;;18.52;;
59442;SDS011;45247;47.466;19.004;2022-12-18T04:08:22;55.88;;;18.45;;
59442;SDS011;45247;47.466;19.004;2022-12-18T04:10:52;65.10;;;21.33;;
59442;SDS011;45247;47.466;19.004;2022-12-18T04:13:27;52.05;;;20.90;;
59442;SDS011;45247;47.466;19.004;2022-12-18T04:15:57;55.53;;;20.77;;
59442;SDS011;45247;47.466;19.004;2022-12-18T04:18:25;47.30;;;17.50;;
59442;SDS011;45247;47.466;19.004;2022-12-18T04:20:53;44.15;;;18.35;;
59442;SDS011;45247;47.466;19.004;2022-12-18T04:23:21;53.15;;;17.33;;
59442;SDS011;45247;47.466;19.004;2022-12-18T04:25:50;44.92;;;18.30;;
59442;SDS011;45247;47.466;19.004;2022-12-18T04:28:18;48.03;;;17.15;;
59442;SDS011;45247;47.466;19.004;2022-12-18T04:30:49;49.65;;;17.60;;
59442;SDS011;45247;47.466;19.004;2022-12-18T04:33:17;47.92;;;17.15;;
59442;SDS011;45247;47.466;19.004;2022-12-18T04:35:46;46.60;;;16.73;;
59442;SDS011;45247;47.466;19.004;2022-12-18T04:38:14;52.42;;;20.30;;
59442;SDS011;45247;47.466;19.004;2022-12-18T04:40:42;38.00;;;15.68;;
59442;SDS011;45247;47.466;19.004;2022-12-18T04:43:11;42.25;;;17.83;;
59442;SDS011;45247;47.466;19.004;2022-12-18T04:45:39;38.53;;;16.02;;
59442;SDS011;45247;47.466;19.004;2022-12-18T04:48:08;47.38;;;17.10;;
59442;SDS011;45247;47.466;19.004;2022-12-18T04:50:37;33.95;;;14.57;;
59442;SDS011;45247;47.466;19.004;2022-12-18T04:53:06;40.63;;;16.35;;
59442;SDS011;45247;47.466;19.004;2022-12-18T04:55:35;41.92;;;16.88;;
59442;SDS011;45247;47.466;19.004;2022-12-18T04:58:04;39.15;;;15.75;;
59442;SDS011;45247;47.466;19.004;2022-12-18T05:00:32;36.20;;;14.60;;
59442;SDS011;45247;47.466;19.004;2022-12-18T05:03:00;37.55;;;14.52;;
59442;SDS011;45247;47.466;19.004;2022-12-18T05:05:30;43.22;;;18.00;;
59442;SDS011;45247;47.466;19.004;2022-12-18T05:07:59;43.67;;;18.73;;
59442;SDS011;45247;47.466;19.004;2022-12-18T05:10:28;44.63;;;19.35;;
59442;SDS011;45247;47.466;19.004;2022-12-18T05:13:03;58.35;;;22.25;;
59442;SDS011;45247;47.466;19.004;2022-12-18T05:15:32;49.90;;;19.45;;
59442;SDS011;45247;47.466;19.004;2022-12-18T05:18:01;47.67;;;19.13;;
59442;SDS011;45247;47.466;19.004;2022-12-18T05:20:31;47.47;;;16.48;;
59442;SDS011;45247;47.466;19.004;2022-12-18T05:22:59;46.60;;;16.85;;
59442;SDS011;45247;47.466;19.004;2022-12-18T05:25:27;46.65;;;17.45;;
59442;SDS011;45247;47.466;19.004;2022-12-18T05:27:56;41.30;;;16.48;;
59442;SDS011;45247;47.466;19.004;2022-12-18T05:30:25;35.63;;;15.23;;
59442;SDS011;45247;47.466;19.004;2022-12-18T05:32:53;40.03;;;14.75;;
59442;SDS011;45247;47.466;19.004;2022-12-18T05:35:22;45.45;;;17.38;;
59442;SDS011;45247;47.466;19.004;2022-12-18T05:37:51;50.20;;;17.40;;
59442;SDS011;45247;47.466;19.004;2022-12-18T05:40:19;43.78;;;15.65;;
59442;SDS011;45247;47.466;19.004;2022-12-18T05:42:47;40.05;;;16.52;;
59442;SDS011;45247;47.466;19.004;2022-12-18T05:45:16;45.35;;;17.73;;
59442;SDS011;45247;47.466;19.004;2022-12-18T05:47:44;40.97;;;16.90;;
59442;SDS011;45247;47.466;19.004;2022-12-18T05:50:12;47.22;;;18.60;;
59442;SDS011;45247;47.466;19.004;2022-12-18T05:52:40;52.45;;;20.95;;
59442;SDS011;45247;47.466;19.004;2022-12-18T05:55:10;59.13;;;22.38;;
59442;SDS011;45247;47.466;19.004;2022-12-18T05:57:38;57.92;;;21.15;;
59442;SDS011;45247;47.466;19.004;2022-12-18T06:00:06;56.97;;;20.67;;
59442;SDS011;45247;47.466;19.004;2022-12-18T06:02:35;53.10;;;19.48;;
59442;SDS011;45247;47.466;19.004;2022-12-18T06:05:04;52.53;;;22.17;;
59442;SDS011;45247;47.466;19.004;2022-12-18T06:07:33;61.63;;;21.08;;
59442;SDS011;45247;47.466;19.004;2022-12-18T06:10:01;52.10;;;18.42;;
59442;SDS011;45247;47.466;19.004;2022-12-18T06:12:30;47.75;;;18.20;;
59442;SDS011;45247;47.466;19.004;2022-12-18T06:14:59;42.10;;;17.38;;
59442;SDS011;45247;47.466;19.004;2022-12-18T06:17:28;56.20;;;20.63;;
59442;SDS011;45247;47.466;19.004;2022-12-18T06:19:56;57.25;;;22.38;;
59442;SDS011;45247;47.466;19.004;2022-12-18T06:22:25;56.85;;;19.20;;
59442;SDS011;45247;47.466;19.004;2022-12-18T06:24:53;43.58;;;17.13;;
59442;SDS011;45247;47.466;19.004;2022-12-18T06:27:21;49.42;;;18.90;;
59442;SDS011;45247;47.466;19.004;2022-12-18T06:29:51;48.90;;;18.02;;
59442;SDS011;45247;47.466;19.004;2022-12-18T06:32:19;48.95;;;18.88;;
59442;SDS011;45247;47.466;19.004;2022-12-18T06:34:47;55.28;;;20.67;;
59442;SDS011;45247;47.466;19.004;2022-12-18T06:37:15;47.92;;;19.95;;
59442;SDS011;45247;47.466;19.004;2022-12-18T06:39:43;47.08;;;19.98;;
59442;SDS011;45247;47.466;19.004;2022-12-18T06:42:11;49.15;;;19.33;;
59442;SDS011;45247;47.466;19.004;2022-12-18T06:44:39;50.13;;;21.45;;
59442;SDS011;45247;47.466;19.004;2022-12-18T06:47:09;58.35;;;21.77;;
59442;SDS011;45247;47.466;19.004;2022-12-18T06:49:38;50.38;;;19.52;;
59442;SDS011;45247;47.466;19.004;2022-12-18T06:52:06;53.97;;;20.60;;
59442;SDS011;45247;47.466;19.004;2022-12-18T06:54:34;54.28;;;19.27;;
59442;SDS011;45247;47.466;19.004;2022-12-18T06:57:02;56.42;;;20.52;;
59442;SDS011;45247;47.466;19.004;2022-12-18T06:59:31;58.97;;;18.95;;
59442;SDS011;45247;47.466;19.004;2022-12-18T07:01:59;45.45;;;17.52;;
59442;SDS011;45247;47.466;19.004;2022-12-18T07:04:29;51.63;;;19.10;;
59442;SDS011;45247;47.466;19.004;2022-12-18T07:06:57;38.75;;;16.90;;
59442;SDS011;45247;47.466;19.004;2022-12-18T07:09:25;45.05;;;17.77;;
59442;SDS011;45247;47.466;19.004;2022-12-18T07:11:57;40.65;;;16.40;;
59442;SDS011;45247;47.466;19.004;2022-12-18T07:14:25;40.05;;;16.33;;
59442;SDS011;45247;47.466;19.004;2022-12-18T07:16:53;40.25;;;17.25;;
59442;SDS011;45247;47.466;19.004;2022-12-18T07:19:23;45.05;;;16.88;;
59442;SDS011;45247;47.466;19.004;2022-12-18T07:21:52;44.13;;;18.77;;
59442;SDS011;45247;47.466;19.004;2022-12-18T07:24:21;56.30;;;22.20;;
59442;SDS011;45247;47.466;19.004;2022-12-18T07:26:49;50.28;;;20.40;;
59442;SDS011;45247;47.466;19.004;2022-12-18T07:29:17;49.67;;;21.05;;
59442;SDS011;45247;47.466;19.004;2022-12-18T07:31:45;51.28;;;21.13;;
59442;SDS011;45247;47.466;19.004;2022-12-18T07:34:13;55.00;;;21.95;;
59442;SDS011;45247;47.466;19.004;2022-12-18T07:36:42;52.85;;;22.13;;
59442;SDS011;45247;47.466;19.004;2022-12-18T07:39:12;50.47;;;20.98;;
59442;SDS011;45247;47.466;19.004;2022-12-18T07:41:40;47.70;;;21.42;;
59442;SDS011;45247;47.466;19.004;2022-12-18T07:44:13;48.00;;;19.40;;
59442;SDS011;45247;47.466;19.004;2022-12-18T07:46:41;51.85;;;18.80;;
59442;SDS011;45247;47.466;19.004;2022-12-18T07:49:09;54.85;;;21.00;;
59442;SDS011;45247;47.466;19.004;2022-12-18T07:51:37;47.00;;;18.75;;
59442;SDS011;45247;47.466;19.004;2022-12-18T07:54:05;52.25;;;22.75;;
59442;SDS011;45247;47.466;19.004;2022-12-18T07:56:35;55.55;;;22.40;;
59442;SDS011;45247;47.466;19.004;2022-12-18T07:59:03;56.47;;;22.42;;
59442;SDS011;45247;47.466;19.004;2022-12-18T08:01:31;70.55;;;26.77;;
59442;SDS011;45247;47.466;19.004;2022-12-18T08:03:59;76.93;;;29.90;;
59442;SDS011;45247;47.466;19.004;2022-12-18T08:06:27;72.18;;;28.52;;
59442;SDS011;45247;47.466;19.004;2022-12-18T08:08:55;69.97;;;24.40;;
59442;SDS011;45247;47.466;19.004;2022-12-18T08:11:24;52.67;;;23.25;;
59442;SDS011;45247;47.466;19.004;2022-12-18T08:13:55;57.72;;;22.98;;
59442;SDS011;45247;47.466;19.004;2022-12-18T08:16:23;59.42;;;22.88;;
59442;SDS011;45247;47.466;19.004;2022-12-18T08:18:52;53.72;;;22.75;;
59442;SDS011;45247;47.466;19.004;2022-12-18T08:21:22;45.45;;;20.00;;
59442;SDS011;45247;47.466;19.004;2022-12-18T08:23:51;50.97;;;20.63;;
59442;SDS011;45247;47.466;19.004;2022-12-18T08:26:21;43.53;;;20.80;;
59442;SDS011;45247;47.466;19.004;2022-12-18T08:28:50;55.50;;;23.08;;
59442;SDS011;45247;47.466;19.004;2022-12-18T08:31:19;54.85;;;23.25;;
59442;SDS011;45247;47.466;19.004;2022-12-18T08:33:50;54.67;;;21.77;;
59442;SDS011;45247;47.466;19.004;2022-12-18T08:36:20;49.20;;;20.60;;
59442;SDS011;45247;47.466;19.004;2022-12-18T08:38:50;52.15;;;20.67;;
59442;SDS011;45247;47.466;19.004;2022-12-18T08:41:18;52.45;;;21.38;;
59442;SDS011;45247;47.466;19.004;2022-12-18T08:43:46;56.47;;;21.85;;
59442;SDS011;45247;47.466;19.004;2022-12-18T08:46:34;53.90;;;23.15;;
59442;SDS011;45247;47.466;19.004;2022-12-18T08:49:04;51.60;;;21.23;;
59442;SDS011;45247;47.466;19.004;2022-12-18T08:51:33;55.83;;;22.90;;
59442;SDS011;45247;47.466;19.004;2022-12-18T08:54:02;63.05;;;22.38;;
59442;SDS011;45247;47.466;19.004;2022-12-18T08:56:32;61.45;;;23.40;;
59442;SDS011;45247;47.466;19.004;2022-12-18T08:59:00;55.05;;;23.90;;
59442;SDS011;45247;47.466;19.004;2022-12-18T09:01:29;57.47;;;23.05;;
59442;SDS011;45247;47.466;19.004;2022-12-18T09:04:00;53.78;;;21.83;;
59442;SDS011;45247;47.466;19.004;2022-12-18T09:06:28;59.00;;;23.55;;
59442;SDS011;45247;47.466;19.004;2022-12-18T09:08:56;54.95;;;24.40;;
59442;SDS011;45247;47.466;19.004;2022-12-18T09:11:25;69.43;;;26.70;;
59442;SDS011;45247;47.466;19.004;2022-12-18T09:13:55;60.90;;;26.50;;
59442;SDS011;45247;47.466;19.004;2022-12-18T09:16:24;54.60;;;22.70;;
59442;SDS011;45247;47.466;19.004;2022-12-18T09:18:59;57.22;;;24.58;;
59442;SDS011;45247;47.466;19.004;2022-12-18T09:21:28;53.05;;;22.60;;
59442;SDS011;45247;47.466;19.004;2022-12-18T09:24:01;59.05;;;24.77;;
59442;SDS011;45247;47.466;19.004;2022-12-18T09:26:30;64.13;;;23.95;;
59442;SDS011;45247;47.466;19.004;2022-12-18T09:28:59;62.80;;;25.95;;
59442;SDS011;45247;47.466;19.004;2022-12-18T09:31:27;50.10;;;23.80;;
59442;SDS011;45247;47.466;19.004;2022-12-18T09:33:55;58.25;;;23.92;;
59442;SDS011;45247;47.466;19.004;2022-12-18T09:36:25;54.97;;;23.08;;
59442;SDS011;45247;47.466;19.004;2022-12-18T09:38:53;57.15;;;25.70;;
59442;SDS011;45247;47.466;19.004;2022-12-18T09:41:37;56.22;;;24.02;;
59442;SDS011;45247;47.466;19.004;2022-12-18T09:44:14;50.35;;;21.85;;
59442;SDS011;45247;47.466;19.004;2022-12-18T09:46:50;50.65;;;20.95;;
59442;SDS011;45247;47.466;19.004;2022-12-18T09:49:23;56.20;;;22.83;;
59442;SDS011;45247;47.466;19.004;2022-12-18T09:51:59;50.22;;;20.38;;
59442;SDS011;45247;47.466;19.004;2022-12-18T09:54:32;57.47;;;24.20;;
59442;SDS011;45247;47.466;19.004;2022-12-18T09:57:04;56.92;;;24.20;;
59442;SDS011;45247;47.466;19.004;2022-12-18T09:59:34;63.42;;;23.55;;
59442;SDS011;45247;47.466;19.004;2022-12-18T10:02:12;58.42;;;23.63;;
59442;SDS011;45247;47.466;19.004;2022-12-18T10:04:43;58.13;;;23.70;;
59442;SDS011;45247;47.466;19.004;2022-12-18T10:07:23;50.42;;;22.55;;
59442;SDS011;45247;47.466;19.004;2022-12-18T10:09:59;58.35;;;24.30;;
59442;SDS011;45247;47.466;19.004;2022-12-18T10:12:32;48.10;;;23.10;;
59442;SDS011;45247;47.466;19.004;2022-12-18T10:15:11;55.85;;;23.10;;
59442;SDS011;45247;47.466;19.004;2022-12-18T10:17:48;55.63;;;22.55;;
59442;SDS011;45247;47.466;19.004;2022-12-18T10:20:24;52.38;;;24.55;;
59442;SDS011;45247;47.466;19.004;2022-12-18T10:23:00;52.60;;;22.52;;
59442;SDS011;45247;47.466;19.004;2022-12-18T10:25:37;56.22;;;23.08;;
59442;SDS011;45247;47.466;19.004;2022-12-18T10:28:15;51.72;;;21.17;;
59442;SDS011;45247;47.466;19.004;2022-12-18T10:30:45;59.33;;;24.02;;
59442;SDS011;45247;47.466;19.004;2022-12-18T10:33:14;56.97;;;24.13;;
59442;SDS011;45247;47.466;19.004;2022-12-18T10:35:45;56.97;;;22.65;;
59442;SDS011;45247;47.466;19.004;2022-12-18T10:38:25;40.85;;;21.25;;
59442;SDS011;45247;47.466;19.004;2022-12-18T10:40:56;48.92;;;21.35;;
59442;SDS011;45247;47.466;19.004;2022-12-18T10:43:26;50.25;;;21.15;;
59442;SDS011;45247;47.466;19.004;2022-12-18T10:46:00;52.40;;;21.55;;
59442;SDS011;45247;47.466;19.004;2022-12-18T10:48:47;47.05;;;20.20;;
59442;SDS011;45247;47.466;19.004;2022-12-18T10:51:20;52.75;;;22.10;;
59442;SDS011;45247;47.466;19.004;2022-12-18T10:53:56;54.67;;;23.48;;
59442;SDS011;45247;47.466;19.004;2022-12-18T10:56:27;54.88;;;23.65;;
59442;SDS011;45247;47.466;19.004;2022-12-18T10:58:58;57.42;;;23.40;;
59442;SDS011;45247;47.466;19.004;2022-12-18T11:01:27;54.83;;;23.98;;
59442;SDS011;45247;47.466;19.004;2022-12-18T11:03:59;48.80;;;23.63;;
59442;SDS011;45247;47.466;19.004;2022-12-18T11:06:29;60.40;;;26.58;;
59442;SDS011;45247;47.466;19.004;2022-12-18T11:09:04;60.22;;;25.02;;
59442;SDS011;45247;47.466;19.004;2022-12-18T11:11:40;61.47;;;25.15;;
59442;SDS011;45247;47.466;19.004;2022-12-18T11:14:12;58.28;;;25.02;;
59442;SDS011;45247;47.466;19.004;2022-12-18T11:16:45;57.40;;;26.25;;
59442;SDS011;45247;47.466;19.004;2022-12-18T11:19:35;60.42;;;24.13;;
59442;SDS011;45247;47.466;19.004;2022-12-18T11:22:17;51.72;;;24.15;;
59442;SDS011;45247;47.466;19.004;2022-12-18T11:24:53;58.90;;;25.42;;
59442;SDS011;45247;47.466;19.004;2022-12-18T11:27:47;54.53;;;23.75;;
59442;SDS011;45247;47.466;19.004;2022-12-18T11:30:20;56.25;;;24.92;;
59442;SDS011;45247;47.466;19.004;2022-12-18T11:32:52;58.80;;;24.58;;
59442;SDS011;45247;47.466;19.004;2022-12-18T11:35:33;55.40;;;23.48;;
59442;SDS011;45247;47.466;19.004;2022-12-18T11:38:11;55.92;;;22.92;;
59442;SDS011;45247;47.466;19.004;2022-12-18T11:40:49;49.60;;;24.15;;
59442;SDS011;45247;47.466;19.004;2022-12-18T11:43:25;56.42;;;23.98;;
59442;SDS011;45247;47.466;19.004;2022-12-18T11:45:58;58.00;;;25.38;;
59442;SDS011;45247;47.466;19.004;2022-12-18T11:48:30;50.13;;;23.90;;
59442;SDS011;45247;47.466;19.004;2022-12-18T11:51:02;57.92;;;24.23;;
59442;SDS011;45247;47.466;19.004;2022-12-18T11:53:36;49.50;;;21.58;;
59442;SDS011;45247;47.466;19.004;2022-12-18T11:56:25;53.97;;;22.60;;
59442;SDS011;45247;47.466;19.004;2022-12-18T11:59:00;54.38;;;23.65;;
59442;SDS011;45247;47.466;19.004;2022-12-18T12:01:39;49.38;;;22.95;;
59442;SDS011;45247;47.466;19.004;2022-12-18T12:07:18;54.03;;;23.05;;
59442;SDS011;45247;47.466;19.004;2022-12-18T12:12:35;55.65;;;20.58;;
59442;SDS011;45247;47.466;19.004;2022-12-18T12:15:17;48.70;;;20.80;;
59442;SDS011;45247;47.466;19.004;2022-12-18T12:17:57;52.72;;;22.00;;
59442;SDS011;45247;47.466;19.004;2022-12-18T12:20:40;47.30;;;19.40;;
59442;SDS011;45247;47.466;19.004;2022-12-18T12:23:16;42.13;;;17.80;;
59442;SDS011;45247;47.466;19.004;2022-12-18T12:25:55;39.33;;;15.80;;
59442;SDS011;45247;47.466;19.004;2022-12-18T12:28:34;32.70;;;15.30;;
59442;SDS011;45247;47.466;19.004;2022-12-18T12:31:28;36.70;;;16.27;;
59442;SDS011;45247;47.466;19.004;2022-12-18T12:34:12;38.05;;;16.42;;
59442;SDS011;45247;47.466;19.004;2022-12-18T12:36:50;36.50;;;17.38;;
59442;SDS011;45247;47.466;19.004;2022-12-18T12:39:30;35.15;;;15.80;;
59442;SDS011;45247;47.466;19.004;2022-12-18T12:42:01;34.90;;;14.75;;
59442;SDS011;45247;47.466;19.004;2022-12-18T12:44:51;37.10;;;15.93;;
59442;SDS011;45247;47.466;19.004;2022-12-18T12:47:23;37.88;;;16.15;;
59442;SDS011;45247;47.466;19.004;2022-12-18T12:49:55;41.40;;;16.25;;
59442;SDS011;45247;47.466;19.004;2022-12-18T12:52:28;35.20;;;15.50;;
59442;SDS011;45247;47.466;19.004;2022-12-18T12:55:02;43.05;;;16.70;;
59442;SDS011;45247;47.466;19.004;2022-12-18T12:57:40;34.03;;;15.40;;
59442;SDS011;45247;47.466;19.004;2022-12-18T13:00:15;42.13;;;18.42;;
59442;SDS011;45247;47.466;19.004;2022-12-18T13:02:47;52.60;;;23.73;;
59442;SDS011;45247;47.466;19.004;2022-12-18T13:05:28;68.25;;;30.17;;
59442;SDS011;45247;47.466;19.004;2022-12-18T13:08:02;63.63;;;28.85;;
59442;SDS011;45247;47.466;19.004;2022-12-18T13:10:34;68.47;;;30.80;;
59442;SDS011;45247;47.466;19.004;2022-12-18T13:13:04;68.90;;;30.85;;
59442;SDS011;45247;47.466;19.004;2022-12-18T13:15:38;71.25;;;34.30;;
59442;SDS011;45247;47.466;19.004;2022-12-18T13:18:16;72.22;;;32.00;;
59442;SDS011;45247;47.466;19.004;2022-12-18T13:20:47;72.25;;;33.30;;
59442;SDS011;45247;47.466;19.004;2022-12-18T13:23:32;72.00;;;31.77;;
59442;SDS011;45247;47.466;19.004;2022-12-18T13:28:58;78.65;;;34.15;;
59442;SDS011;45247;47.466;19.004;2022-12-18T13:34:27;71.45;;;32.95;;
59442;SDS011;45247;47.466;19.004;2022-12-18T13:40:00;69.13;;;30.73;;
59442;SDS011;45247;47.466;19.004;2022-12-18T13:45:35;67.35;;;29.60;;
59442;SDS011;45247;47.466;19.004;2022-12-18T13:48:19;74.57;;;33.30;;
59442;SDS011;45247;47.466;19.004;2022-12-18T13:50:53;78.57;;;33.40;;
59442;SDS011;45247;47.466;19.004;2022-12-18T13:53:26;73.47;;;30.88;;
59442;SDS011;45247;47.466;19.004;2022-12-18T13:55:57;79.63;;;31.65;;
59442;SDS011;45247;47.466;19.004;2022-12-18T13:58:26;73.93;;;31.23;;
59442;SDS011;45247;47.466;19.004;2022-12-18T14:00:54;78.57;;;32.03;;
59442;SDS011;45247;47.466;19.004;2022-12-18T14:03:25;71.97;;;31.38;;
59442;SDS011;45247;47.466;19.004;2022-12-18T14:05:56;69.40;;;30.85;;
59442;SDS011;45247;47.466;19.004;2022-12-18T14:08:32;67.82;;;31.33;;
59442;SDS011;45247;47.466;19.004;2022-12-18T14:11:05;66.80;;;29.00;;
59442;SDS011;45247;47.466;19.004;2022-12-18T14:13:37;79.28;;;31.10;;
59442;SDS011;45247;47.466;19.004;2022-12-18T14:16:11;72.80;;;30.20;;
59442;SDS011;45247;47.466;19.004;2022-12-18T14:18:45;69.40;;;28.20;;
59442;SDS011;45247;47.466;19.004;2022-12-18T14:23:46;66.03;;;26.70;;
59442;SDS011;45247;47.466;19.004;2022-12-18T14:26:21;61.80;;;27.45;;
59442;SDS011;45247;47.466;19.004;2022-12-18T14:28:55;61.30;;;27.23;;
59442;SDS011;45247;47.466;19.004;2022-12-18T14:31:25;63.90;;;26.52;;
59442;SDS011;45247;47.466;19.004;2022-12-18T14:33:56;60.50;;;27.80;;
59442;SDS011;45247;47.466;19.004;2022-12-18T14:36:26;64.40;;;27.35;;
59442;SDS011;45247;47.466;19.004;2022-12-18T14:38:56;62.13;;;24.98;;
59442;SDS011;45247;47.466;19.004;2022-12-18T14:41:25;70.18;;;27.98;;
59442;SDS011;45247;47.466;19.004;2022-12-18T14:43:54;67.15;;;28.17;;
59442;SDS011;45247;47.466;19.004;2022-12-18T14:46:27;72.13;;;29.05;;
59442;SDS011;45247;47.466;19.004;2022-12-18T14:49:01;70.95;;;28.05;;
59442;SDS011;45247;47.466;19.004;2022-12-18T14:51:32;68.68;;;28.15;;
59442;SDS011;45247;47.466;19.004;2022-12-18T14:54:02;71.38;;;29.27;;
59442;SDS011;45247;47.466;19.004;2022-12-18T14:56:35;83.85;;;34.42;;
59442;SDS011;45247;47.466;19.004;2022-12-18T14:59:12;75.00;;;32.60;;
59442;SDS011;45247;47.466;19.004;2022-12-18T15:01:51;69.13;;;29.02;;